sensor_id;sensor_type;location;lat;lon;timestamp;temperature;humidity
81337;DHT22;70799;48.000;10.584;2023-06-26T00:01:20;17.80;61.10
81337;DHT22;70799;48.000;10.584;2023-06-26T00:03:54;17.80;60.90
81337;DHT22;70799;48.000;10.584;2023-06-26T00:06:27;17.70;61.00
81337;DHT22;70799;48.000;10.584;2023-06-26T00:09:03;17.80;61.00
81337;DHT22;70799;48.000;10.584;2023-06-26T00:11:36;17.70;60.90
81337;DHT22;70799;48.000;10.584;2023-06-26T00:14:10;17.70;61.20
81337;DHT22;70799;48.000;10.584;2023-06-26T00:16:43;17.60;61.60
81337;DHT22;70799;48.000;10.584;2023-06-26T00:19:16;17.60;61.60
81337;DHT22;70799;48.000;10.584;2023-06-26T00:21:49;17.50;62.00
81337;DHT22;70799;48.000;10.584;2023-06-26T00:24:23;17.50;62.20
81337;DHT22;70799;48.000;10.584;2023-06-26T00:26:56;17.40;61.80
81337;DHT22;70799;48.000;10.584;2023-06-26T00:29:33;17.30;62.00
81337;DHT22;70799;48.000;10.584;2023-06-26T00:32:06;17.40;62.30
81337;DHT22;70799;48.000;10.584;2023-06-26T00:34:39;17.40;62.10
81337;DHT22;70799;48.000;10.584;2023-06-26T00:37:13;17.30;62.20
81337;DHT22;70799;48.000;10.584;2023-06-26T00:39:46;17.40;62.10
81337;DHT22;70799;48.000;10.584;2023-06-26T00:42:19;17.30;62.30
81337;DHT22;70799;48.000;10.584;2023-06-26T00:44:52;17.20;62.50
81337;DHT22;70799;48.000;10.584;2023-06-26T00:47:26;17.30;62.30
81337;DHT22;70799;48.000;10.584;2023-06-26T00:50:00;17.20;62.70
81337;DHT22;70799;48.000;10.584;2023-06-26T00:52:34;17.20;62.20
81337;DHT22;70799;48.000;10.584;2023-06-26T00:55:07;17.20;62.40
81337;DHT22;70799;48.000;10.584;2023-06-26T00:57:42;17.20;62.50
81337;DHT22;70799;48.000;10.584;2023-06-26T01:00:17;17.20;62.40
81337;DHT22;70799;48.000;10.584;2023-06-26T01:02:51;17.10;62.60
81337;DHT22;70799;48.000;10.584;2023-06-26T01:05:26;17.10;62.40
81337;DHT22;70799;48.000;10.584;2023-06-26T01:08:00;17.10;62.60
81337;DHT22;70799;48.000;10.584;2023-06-26T01:10:35;17.10;62.70
81337;DHT22;70799;48.000;10.584;2023-06-26T01:13:09;17.10;62.70
81337;DHT22;70799;48.000;10.584;2023-06-26T01:15:42;17.00;62.40
81337;DHT22;70799;48.000;10.584;2023-06-26T01:18:17;17.00;62.90
81337;DHT22;70799;48.000;10.584;2023-06-26T01:20:50;16.90;63.00
81337;DHT22;70799;48.000;10.584;2023-06-26T01:23:31;16.90;63.40
81337;DHT22;70799;48.000;10.584;2023-06-26T01:26:20;16.90;63.00
81337;DHT22;70799;48.000;10.584;2023-06-26T01:28:56;16.90;63.30
81337;DHT22;70799;48.000;10.584;2023-06-26T01:31:30;16.80;63.10
81337;DHT22;70799;48.000;10.584;2023-06-26T01:34:06;16.80;63.60
81337;DHT22;70799;48.000;10.584;2023-06-26T01:36:39;16.80;63.30
81337;DHT22;70799;48.000;10.584;2023-06-26T01:39:17;16.90;63.30
81337;DHT22;70799;48.000;10.584;2023-06-26T01:41:51;16.80;62.90
81337;DHT22;70799;48.000;10.584;2023-06-26T01:44:29;16.90;63.40
81337;DHT22;70799;48.000;10.584;2023-06-26T01:47:04;16.80;63.50
81337;DHT22;70799;48.000;10.584;2023-06-26T01:49:55;16.70;63.70
81337;DHT22;70799;48.000;10.584;2023-06-26T01:52:39;16.70;63.70
81337;DHT22;70799;48.000;10.584;2023-06-26T01:55:20;16.70;63.90
81337;DHT22;70799;48.000;10.584;2023-06-26T01:57:56;16.70;63.80
81337;DHT22;70799;48.000;10.584;2023-06-26T02:00:34;16.60;63.90
81337;DHT22;70799;48.000;10.584;2023-06-26T02:03:09;16.60;64.40
81337;DHT22;70799;48.000;10.584;2023-06-26T02:05:44;16.50;64.40
81337;DHT22;70799;48.000;10.584;2023-06-26T02:08:17;16.50;64.80
81337;DHT22;70799;48.000;10.584;2023-06-26T02:10:53;16.50;64.70
81337;DHT22;70799;48.000;10.584;2023-06-26T02:13:26;16.40;64.80
81337;DHT22;70799;48.000;10.584;2023-06-26T02:16:00;16.40;65.00
81337;DHT22;70799;48.000;10.584;2023-06-26T02:18:33;16.30;65.30
81337;DHT22;70799;48.000;10.584;2023-06-26T02:21:07;16.30;65.30
81337;DHT22;70799;48.000;10.584;2023-06-26T02:23:40;16.30;65.10
81337;DHT22;70799;48.000;10.584;2023-06-26T02:26:14;16.20;65.30
81337;DHT22;70799;48.000;10.584;2023-06-26T02:28:47;16.20;65.50
81337;DHT22;70799;48.000;10.584;2023-06-26T02:31:20;16.20;65.60
81337;DHT22;70799;48.000;10.584;2023-06-26T02:33:53;16.10;65.70
81337;DHT22;70799;48.000;10.584;2023-06-26T02:36:26;16.20;65.80
81337;DHT22;70799;48.000;10.584;2023-06-26T02:38:59;16.10;65.80
81337;DHT22;70799;48.000;10.584;2023-06-26T02:41:34;16.10;66.10
81337;DHT22;70799;48.000;10.584;2023-06-26T02:44:08;16.10;66.40
81337;DHT22;70799;48.000;10.584;2023-06-26T02:46:43;16.10;66.30
81337;DHT22;70799;48.000;10.584;2023-06-26T02:49:16;16.10;66.30
81337;DHT22;70799;48.000;10.584;2023-06-26T02:51:54;16.10;66.50
81337;DHT22;70799;48.000;10.584;2023-06-26T02:54:30;16.00;66.60
81337;DHT22;70799;48.000;10.584;2023-06-26T02:57:07;16.00;66.80
81337;DHT22;70799;48.000;10.584;2023-06-26T02:59:41;15.90;66.90
81337;DHT22;70799;48.000;10.584;2023-06-26T03:02:16;16.00;67.10
81337;DHT22;70799;48.000;10.584;2023-06-26T03:04:50;16.00;67.10
81337;DHT22;70799;48.000;10.584;2023-06-26T03:07:24;16.00;67.50
81337;DHT22;70799;48.000;10.584;2023-06-26T03:09:58;16.00;67.00
81337;DHT22;70799;48.000;10.584;2023-06-26T03:12:33;16.00;67.30
81337;DHT22;70799;48.000;10.584;2023-06-26T03:15:07;16.00;67.40
81337;DHT22;70799;48.000;10.584;2023-06-26T03:17:40;16.00;67.40
81337;DHT22;70799;48.000;10.584;2023-06-26T03:20:18;16.00;67.60
81337;DHT22;70799;48.000;10.584;2023-06-26T03:22:54;16.00;67.20
81337;DHT22;70799;48.000;10.584;2023-06-26T03:25:28;15.90;67.70
81337;DHT22;70799;48.000;10.584;2023-06-26T03:28:15;16.00;68.00
81337;DHT22;70799;48.000;10.584;2023-06-26T03:30:48;15.90;67.60
81337;DHT22;70799;48.000;10.584;2023-06-26T03:33:22;15.90;67.90
81337;DHT22;70799;48.000;10.584;2023-06-26T03:35:55;15.80;67.80
81337;DHT22;70799;48.000;10.584;2023-06-26T03:38:29;15.90;67.70
81337;DHT22;70799;48.000;10.584;2023-06-26T03:41:03;15.90;68.00
81337;DHT22;70799;48.000;10.584;2023-06-26T03:43:36;15.90;67.90
81337;DHT22;70799;48.000;10.584;2023-06-26T03:46:23;15.90;67.80
81337;DHT22;70799;48.000;10.584;2023-06-26T03:48:57;15.90;68.10
81337;DHT22;70799;48.000;10.584;2023-06-26T03:51:30;16.00;68.00
81337;DHT22;70799;48.000;10.584;2023-06-26T03:54:03;16.10;67.80
81337;DHT22;70799;48.000;10.584;2023-06-26T03:56:36;16.10;67.80
81337;DHT22;70799;48.000;10.584;2023-06-26T03:59:10;16.20;67.80
81337;DHT22;70799;48.000;10.584;2023-06-26T04:01:47;16.30;67.90
81337;DHT22;70799;48.000;10.584;2023-06-26T04:04:24;16.40;67.60
81337;DHT22;70799;48.000;10.584;2023-06-26T04:06:58;16.60;67.80
81337;DHT22;70799;48.000;10.584;2023-06-26T04:09:33;16.80;67.70
81337;DHT22;70799;48.000;10.584;2023-06-26T04:12:06;17.10;67.30
81337;DHT22;70799;48.000;10.584;2023-06-26T04:14:39;17.30;66.80
81337;DHT22;70799;48.000;10.584;2023-06-26T04:17:15;17.60;66.70
81337;DHT22;70799;48.000;10.584;2023-06-26T04:19:48;17.90;66.40
81337;DHT22;70799;48.000;10.584;2023-06-26T04:22:21;18.30;64.90
81337;DHT22;70799;48.000;10.584;2023-06-26T04:24:54;18.50;64.40
81337;DHT22;70799;48.000;10.584;2023-06-26T04:27:28;18.90;64.50
81337;DHT22;70799;48.000;10.584;2023-06-26T04:30:02;19.20;64.30
81337;DHT22;70799;48.000;10.584;2023-06-26T04:32:37;19.60;63.60
81337;DHT22;70799;48.000;10.584;2023-06-26T04:35:10;20.00;63.20
81337;DHT22;70799;48.000;10.584;2023-06-26T04:37:43;20.30;61.30
81337;DHT22;70799;48.000;10.584;2023-06-26T04:40:16;20.60;61.40
81337;DHT22;70799;48.000;10.584;2023-06-26T04:42:49;20.70;60.20
81337;DHT22;70799;48.000;10.584;2023-06-26T04:45:23;20.90;60.40
81337;DHT22;70799;48.000;10.584;2023-06-26T04:47:56;20.90;58.70
81337;DHT22;70799;48.000;10.584;2023-06-26T04:50:30;21.10;57.70
81337;DHT22;70799;48.000;10.584;2023-06-26T04:53:05;21.20;56.80
81337;DHT22;70799;48.000;10.584;2023-06-26T04:55:38;21.30;56.00
81337;DHT22;70799;48.000;10.584;2023-06-26T04:58:11;21.50;55.60
81337;DHT22;70799;48.000;10.584;2023-06-26T05:00:45;21.70;54.90
81337;DHT22;70799;48.000;10.584;2023-06-26T05:03:18;21.70;54.70
81337;DHT22;70799;48.000;10.584;2023-06-26T05:05:52;21.80;54.70
81337;DHT22;70799;48.000;10.584;2023-06-26T05:08:26;21.90;54.90
81337;DHT22;70799;48.000;10.584;2023-06-26T05:10:59;21.90;54.70
81337;DHT22;70799;48.000;10.584;2023-06-26T05:13:34;22.00;54.50
81337;DHT22;70799;48.000;10.584;2023-06-26T05:16:09;22.20;53.80
81337;DHT22;70799;48.000;10.584;2023-06-26T05:18:42;22.30;53.50
81337;DHT22;70799;48.000;10.584;2023-06-26T05:21:47;22.30;54.40
81337;DHT22;70799;48.000;10.584;2023-06-26T05:24:23;22.50;53.40
81337;DHT22;70799;48.000;10.584;2023-06-26T05:26:56;22.80;54.20
81337;DHT22;70799;48.000;10.584;2023-06-26T05:29:33;22.90;54.00
81337;DHT22;70799;48.000;10.584;2023-06-26T05:32:11;23.10;53.80
81337;DHT22;70799;48.000;10.584;2023-06-26T05:34:49;23.50;53.20
81337;DHT22;70799;48.000;10.584;2023-06-26T05:37:24;24.00;51.40
81337;DHT22;70799;48.000;10.584;2023-06-26T05:40:00;24.70;50.80
81337;DHT22;70799;48.000;10.584;2023-06-26T05:42:35;25.30;50.10
81337;DHT22;70799;48.000;10.584;2023-06-26T05:45:09;25.90;49.10
81337;DHT22;70799;48.000;10.584;2023-06-26T05:47:44;26.50;47.50
81337;DHT22;70799;48.000;10.584;2023-06-26T05:50:18;27.00;45.60
81337;DHT22;70799;48.000;10.584;2023-06-26T05:52:55;27.50;45.70
81337;DHT22;70799;48.000;10.584;2023-06-26T05:55:29;28.00;45.20
81337;DHT22;70799;48.000;10.584;2023-06-26T05:58:03;28.30;44.20
81337;DHT22;70799;48.000;10.584;2023-06-26T06:00:39;28.60;43.00
81337;DHT22;70799;48.000;10.584;2023-06-26T06:03:12;28.90;43.20
81337;DHT22;70799;48.000;10.584;2023-06-26T06:05:46;29.10;41.90
81337;DHT22;70799;48.000;10.584;2023-06-26T06:08:19;29.20;41.20
81337;DHT22;70799;48.000;10.584;2023-06-26T06:10:53;29.40;41.90
81337;DHT22;70799;48.000;10.584;2023-06-26T06:13:26;29.70;41.30
81337;DHT22;70799;48.000;10.584;2023-06-26T06:15:59;29.70;41.10
81337;DHT22;70799;48.000;10.584;2023-06-26T06:18:32;30.10;40.40
81337;DHT22;70799;48.000;10.584;2023-06-26T06:21:06;30.30;40.80
81337;DHT22;70799;48.000;10.584;2023-06-26T06:23:39;30.60;40.30
81337;DHT22;70799;48.000;10.584;2023-06-26T06:26:12;30.50;39.30
81337;DHT22;70799;48.000;10.584;2023-06-26T06:28:45;30.70;39.40
81337;DHT22;70799;48.000;10.584;2023-06-26T06:31:18;30.70;39.80
81337;DHT22;70799;48.000;10.584;2023-06-26T06:33:52;30.80;39.10
81337;DHT22;70799;48.000;10.584;2023-06-26T06:36:25;30.90;39.30
81337;DHT22;70799;48.000;10.584;2023-06-26T06:38:58;30.90;38.70
81337;DHT22;70799;48.000;10.584;2023-06-26T06:41:33;30.90;38.70
81337;DHT22;70799;48.000;10.584;2023-06-26T06:44:10;31.00;38.90
81337;DHT22;70799;48.000;10.584;2023-06-26T06:46:43;31.20;38.10
81337;DHT22;70799;48.000;10.584;2023-06-26T06:49:16;31.30;38.70
81337;DHT22;70799;48.000;10.584;2023-06-26T06:51:49;31.50;37.60
81337;DHT22;70799;48.000;10.584;2023-06-26T06:54:26;31.60;37.60
81337;DHT22;70799;48.000;10.584;2023-06-26T06:56:59;31.50;36.90
81337;DHT22;70799;48.000;10.584;2023-06-26T06:59:33;31.60;37.20
81337;DHT22;70799;48.000;10.584;2023-06-26T07:02:06;31.60;36.60
81337;DHT22;70799;48.000;10.584;2023-06-26T07:04:39;31.40;36.80
81337;DHT22;70799;48.000;10.584;2023-06-26T07:07:12;31.30;37.50
81337;DHT22;70799;48.000;10.584;2023-06-26T07:09:46;31.40;37.40
81337;DHT22;70799;48.000;10.584;2023-06-26T07:12:19;31.50;36.90
81337;DHT22;70799;48.000;10.584;2023-06-26T07:14:52;31.60;36.70
81337;DHT22;70799;48.000;10.584;2023-06-26T07:17:25;31.80;37.00
81337;DHT22;70799;48.000;10.584;2023-06-26T07:20:00;32.00;35.50
81337;DHT22;70799;48.000;10.584;2023-06-26T07:22:36;32.00;36.20
81337;DHT22;70799;48.000;10.584;2023-06-26T07:25:09;32.10;35.10
81337;DHT22;70799;48.000;10.584;2023-06-26T07:27:43;32.10;35.50
81337;DHT22;70799;48.000;10.584;2023-06-26T07:30:16;32.20;35.30
81337;DHT22;70799;48.000;10.584;2023-06-26T07:32:50;32.40;35.30
81337;DHT22;70799;48.000;10.584;2023-06-26T07:35:23;32.70;35.10
81337;DHT22;70799;48.000;10.584;2023-06-26T07:37:56;32.90;33.60
81337;DHT22;70799;48.000;10.584;2023-06-26T07:40:29;32.70;34.30
81337;DHT22;70799;48.000;10.584;2023-06-26T07:43:02;32.80;34.00
81337;DHT22;70799;48.000;10.584;2023-06-26T07:45:36;32.90;34.30
81337;DHT22;70799;48.000;10.584;2023-06-26T07:48:09;32.90;33.00
81337;DHT22;70799;48.000;10.584;2023-06-26T07:50:42;32.70;34.00
81337;DHT22;70799;48.000;10.584;2023-06-26T07:53:15;32.80;34.50
81337;DHT22;70799;48.000;10.584;2023-06-26T07:55:48;33.20;33.40
81337;DHT22;70799;48.000;10.584;2023-06-26T07:58:22;33.30;33.70
81337;DHT22;70799;48.000;10.584;2023-06-26T08:00:57;33.60;33.00
81337;DHT22;70799;48.000;10.584;2023-06-26T08:03:30;33.80;32.30
81337;DHT22;70799;48.000;10.584;2023-06-26T08:06:07;33.70;32.80
81337;DHT22;70799;48.000;10.584;2023-06-26T08:08:43;34.00;33.30
81337;DHT22;70799;48.000;10.584;2023-06-26T08:11:17;34.30;33.40
81337;DHT22;70799;48.000;10.584;2023-06-26T08:13:50;34.40;32.60
81337;DHT22;70799;48.000;10.584;2023-06-26T08:16:23;34.60;32.20
81337;DHT22;70799;48.000;10.584;2023-06-26T08:18:57;34.50;31.30
81337;DHT22;70799;48.000;10.584;2023-06-26T08:21:30;34.30;31.40
81337;DHT22;70799;48.000;10.584;2023-06-26T08:24:03;34.30;32.30
81337;DHT22;70799;48.000;10.584;2023-06-26T08:26:37;34.40;32.00
81337;DHT22;70799;48.000;10.584;2023-06-26T08:29:10;34.60;31.70
81337;DHT22;70799;48.000;10.584;2023-06-26T08:31:43;34.70;31.60
81337;DHT22;70799;48.000;10.584;2023-06-26T08:34:16;34.70;31.20
81337;DHT22;70799;48.000;10.584;2023-06-26T08:36:50;34.60;31.50
81337;DHT22;70799;48.000;10.584;2023-06-26T08:39:23;34.60;30.90
81337;DHT22;70799;48.000;10.584;2023-06-26T08:41:56;34.60;31.20
81337;DHT22;70799;48.000;10.584;2023-06-26T08:44:29;34.70;29.90
81337;DHT22;70799;48.000;10.584;2023-06-26T08:47:03;34.80;30.00
81337;DHT22;70799;48.000;10.584;2023-06-26T08:49:42;34.60;29.10
81337;DHT22;70799;48.000;10.584;2023-06-26T08:52:36;34.50;30.70
81337;DHT22;70799;48.000;10.584;2023-06-26T08:55:18;34.10;30.50
81337;DHT22;70799;48.000;10.584;2023-06-26T08:57:56;34.10;31.10
81337;DHT22;70799;48.000;10.584;2023-06-26T09:00:29;34.20;31.20
81337;DHT22;70799;48.000;10.584;2023-06-26T09:03:04;34.10;31.60
81337;DHT22;70799;48.000;10.584;2023-06-26T09:05:37;34.40;31.30
81337;DHT22;70799;48.000;10.584;2023-06-26T09:08:10;34.80;29.90
81337;DHT22;70799;48.000;10.584;2023-06-26T09:10:45;35.00;29.30
81337;DHT22;70799;48.000;10.584;2023-06-26T09:13:18;35.00;29.50
81337;DHT22;70799;48.000;10.584;2023-06-26T09:16:09;34.90;28.80
81337;DHT22;70799;48.000;10.584;2023-06-26T09:18:42;34.70;28.70
81337;DHT22;70799;48.000;10.584;2023-06-26T09:21:16;34.50;29.80
81337;DHT22;70799;48.000;10.584;2023-06-26T09:23:49;34.50;29.60
81337;DHT22;70799;48.000;10.584;2023-06-26T09:26:22;34.50;30.10
81337;DHT22;70799;48.000;10.584;2023-06-26T09:28:56;34.60;29.60
81337;DHT22;70799;48.000;10.584;2023-06-26T09:31:30;34.60;28.80
81337;DHT22;70799;48.000;10.584;2023-06-26T09:34:13;34.70;30.20
81337;DHT22;70799;48.000;10.584;2023-06-26T09:36:46;34.80;29.40
81337;DHT22;70799;48.000;10.584;2023-06-26T09:39:20;35.00;29.40
81337;DHT22;70799;48.000;10.584;2023-06-26T09:41:54;35.20;29.80
81337;DHT22;70799;48.000;10.584;2023-06-26T09:44:32;35.40;30.20
81337;DHT22;70799;48.000;10.584;2023-06-26T09:47:06;35.40;30.10
81337;DHT22;70799;48.000;10.584;2023-06-26T09:49:43;35.40;28.70
81337;DHT22;70799;48.000;10.584;2023-06-26T09:52:18;35.40;29.90
81337;DHT22;70799;48.000;10.584;2023-06-26T09:54:51;35.50;29.60
81337;DHT22;70799;48.000;10.584;2023-06-26T09:57:40;35.50;30.60
81337;DHT22;70799;48.000;10.584;2023-06-26T10:00:17;35.60;29.50
81337;DHT22;70799;48.000;10.584;2023-06-26T10:02:51;35.60;29.70
81337;DHT22;70799;48.000;10.584;2023-06-26T10:05:25;35.60;28.80
81337;DHT22;70799;48.000;10.584;2023-06-26T10:07:58;35.50;28.50
81337;DHT22;70799;48.000;10.584;2023-06-26T10:10:37;35.50;28.00
81337;DHT22;70799;48.000;10.584;2023-06-26T10:13:21;35.50;28.40
81337;DHT22;70799;48.000;10.584;2023-06-26T10:15:57;35.40;28.40
81337;DHT22;70799;48.000;10.584;2023-06-26T10:18:36;35.40;28.70
81337;DHT22;70799;48.000;10.584;2023-06-26T10:21:12;35.60;28.60
81337;DHT22;70799;48.000;10.584;2023-06-26T10:23:48;35.90;29.70
81337;DHT22;70799;48.000;10.584;2023-06-26T10:26:24;36.20;29.70
81337;DHT22;70799;48.000;10.584;2023-06-26T10:28:58;36.60;29.30
81337;DHT22;70799;48.000;10.584;2023-06-26T10:31:32;36.70;28.30
81337;DHT22;70799;48.000;10.584;2023-06-26T10:34:06;36.80;28.10
81337;DHT22;70799;48.000;10.584;2023-06-26T10:36:39;36.70;28.00
81337;DHT22;70799;48.000;10.584;2023-06-26T10:39:12;36.20;27.80
81337;DHT22;70799;48.000;10.584;2023-06-26T10:41:45;36.10;28.40
81337;DHT22;70799;48.000;10.584;2023-06-26T10:44:42;36.20;28.50
81337;DHT22;70799;48.000;10.584;2023-06-26T10:47:30;36.10;26.90
81337;DHT22;70799;48.000;10.584;2023-06-26T10:50:30;35.80;27.50
81337;DHT22;70799;48.000;10.584;2023-06-26T10:55:58;35.90;27.20
81337;DHT22;70799;48.000;10.584;2023-06-26T11:06:35;35.90;28.90
81337;DHT22;70799;48.000;10.584;2023-06-26T11:09:14;36.10;28.20
81337;DHT22;70799;48.000;10.584;2023-06-26T11:14:26;36.20;28.40
81337;DHT22;70799;48.000;10.584;2023-06-26T11:17:02;36.20;28.40
81337;DHT22;70799;48.000;10.584;2023-06-26T11:19:37;36.50;27.90
81337;DHT22;70799;48.000;10.584;2023-06-26T11:22:15;36.30;27.70
81337;DHT22;70799;48.000;10.584;2023-06-26T11:24:53;35.90;28.10
81337;DHT22;70799;48.000;10.584;2023-06-26T11:27:43;35.80;28.80
81337;DHT22;70799;48.000;10.584;2023-06-26T11:30:24;35.80;28.40
81337;DHT22;70799;48.000;10.584;2023-06-26T11:33:10;35.50;28.70
81337;DHT22;70799;48.000;10.584;2023-06-26T11:35:43;34.90;28.80
81337;DHT22;70799;48.000;10.584;2023-06-26T11:38:17;34.50;29.60
81337;DHT22;70799;48.000;10.584;2023-06-26T11:40:50;34.60;29.30
81337;DHT22;70799;48.000;10.584;2023-06-26T11:43:23;34.80;28.90
81337;DHT22;70799;48.000;10.584;2023-06-26T11:45:56;35.00;29.40
81337;DHT22;70799;48.000;10.584;2023-06-26T11:48:30;35.20;28.30
81337;DHT22;70799;48.000;10.584;2023-06-26T11:51:07;35.40;29.50
81337;DHT22;70799;48.000;10.584;2023-06-26T11:53:42;35.60;27.80
81337;DHT22;70799;48.000;10.584;2023-06-26T11:56:16;35.70;29.00
81337;DHT22;70799;48.000;10.584;2023-06-26T11:59:00;35.80;28.60
81337;DHT22;70799;48.000;10.584;2023-06-26T12:01:43;35.80;26.30
81337;DHT22;70799;48.000;10.584;2023-06-26T12:04:18;35.40;27.70
81337;DHT22;70799;48.000;10.584;2023-06-26T12:06:53;35.30;27.90
81337;DHT22;70799;48.000;10.584;2023-06-26T12:09:31;35.30;27.40
81337;DHT22;70799;48.000;10.584;2023-06-26T12:12:06;35.10;27.20
81337;DHT22;70799;48.000;10.584;2023-06-26T12:14:39;34.90;28.00
81337;DHT22;70799;48.000;10.584;2023-06-26T12:17:14;34.90;28.20
81337;DHT22;70799;48.000;10.584;2023-06-26T12:19:47;34.80;27.50
81337;DHT22;70799;48.000;10.584;2023-06-26T12:22:21;35.00;27.50
81337;DHT22;70799;48.000;10.584;2023-06-26T12:24:56;35.10;27.30
81337;DHT22;70799;48.000;10.584;2023-06-26T12:27:30;35.00;27.70
81337;DHT22;70799;48.000;10.584;2023-06-26T12:30:05;34.90;28.40
81337;DHT22;70799;48.000;10.584;2023-06-26T12:32:40;35.00;29.40
81337;DHT22;70799;48.000;10.584;2023-06-26T12:35:13;35.20;28.70
81337;DHT22;70799;48.000;10.584;2023-06-26T12:37:48;35.40;27.70
81337;DHT22;70799;48.000;10.584;2023-06-26T12:40:24;35.60;27.70
81337;DHT22;70799;48.000;10.584;2023-06-26T12:42:58;35.80;27.40
81337;DHT22;70799;48.000;10.584;2023-06-26T12:45:38;35.90;27.30
81337;DHT22;70799;48.000;10.584;2023-06-26T12:48:13;36.00;26.90
81337;DHT22;70799;48.000;10.584;2023-06-26T12:50:48;36.10;26.90
81337;DHT22;70799;48.000;10.584;2023-06-26T12:53:23;36.20;27.50
81337;DHT22;70799;48.000;10.584;2023-06-26T12:55:56;36.40;26.80
81337;DHT22;70799;48.000;10.584;2023-06-26T12:58:29;36.20;26.30
81337;DHT22;70799;48.000;10.584;2023-06-26T13:01:06;36.00;25.90
81337;DHT22;70799;48.000;10.584;2023-06-26T13:03:47;35.80;25.90
81337;DHT22;70799;48.000;10.584;2023-06-26T13:06:21;35.60;26.70
81337;DHT22;70799;48.000;10.584;2023-06-26T13:08:54;35.60;26.80
81337;DHT22;70799;48.000;10.584;2023-06-26T13:11:27;35.80;26.70
81337;DHT22;70799;48.000;10.584;2023-06-26T13:14:00;35.90;26.80
81337;DHT22;70799;48.000;10.584;2023-06-26T13:16:42;36.10;25.90
81337;DHT22;70799;48.000;10.584;2023-06-26T13:19:15;36.20;25.80
81337;DHT22;70799;48.000;10.584;2023-06-26T13:21:48;36.40;26.40
81337;DHT22;70799;48.000;10.584;2023-06-26T13:24:22;36.40;26.90
81337;DHT22;70799;48.000;10.584;2023-06-26T13:26:56;36.40;25.90
81337;DHT22;70799;48.000;10.584;2023-06-26T13:29:31;36.30;26.90
81337;DHT22;70799;48.000;10.584;2023-06-26T13:32:05;36.20;27.00
81337;DHT22;70799;48.000;10.584;2023-06-26T13:34:39;36.30;27.10
81337;DHT22;70799;48.000;10.584;2023-06-26T13:37:14;35.90;26.40
81337;DHT22;70799;48.000;10.584;2023-06-26T13:39:48;35.30;26.40
81337;DHT22;70799;48.000;10.584;2023-06-26T13:42:21;34.70;27.40
81337;DHT22;70799;48.000;10.584;2023-06-26T13:44:55;34.30;28.90
81337;DHT22;70799;48.000;10.584;2023-06-26T13:47:37;34.10;29.10
81337;DHT22;70799;48.000;10.584;2023-06-26T13:50:14;33.90;28.80
81337;DHT22;70799;48.000;10.584;2023-06-26T13:52:47;33.60;29.10
81337;DHT22;70799;48.000;10.584;2023-06-26T13:55:20;33.40;29.70
81337;DHT22;70799;48.000;10.584;2023-06-26T13:57:55;33.20;29.50
81337;DHT22;70799;48.000;10.584;2023-06-26T14:00:30;32.90;29.80
81337;DHT22;70799;48.000;10.584;2023-06-26T14:03:06;32.80;30.20
81337;DHT22;70799;48.000;10.584;2023-06-26T14:05:43;32.60;30.70
81337;DHT22;70799;48.000;10.584;2023-06-26T14:08:16;32.60;31.30
81337;DHT22;70799;48.000;10.584;2023-06-26T14:10:50;32.50;30.70
81337;DHT22;70799;48.000;10.584;2023-06-26T14:13:23;32.40;31.00
81337;DHT22;70799;48.000;10.584;2023-06-26T14:15:56;32.20;31.00
81337;DHT22;70799;48.000;10.584;2023-06-26T14:18:30;32.10;31.90
81337;DHT22;70799;48.000;10.584;2023-06-26T14:21:03;31.90;32.00
81337;DHT22;70799;48.000;10.584;2023-06-26T14:23:36;31.90;32.20
81337;DHT22;70799;48.000;10.584;2023-06-26T14:26:09;32.00;31.70
81337;DHT22;70799;48.000;10.584;2023-06-26T14:28:42;31.90;32.10
81337;DHT22;70799;48.000;10.584;2023-06-26T14:31:16;31.90;32.70
81337;DHT22;70799;48.000;10.584;2023-06-26T14:33:50;31.60;33.80
81337;DHT22;70799;48.000;10.584;2023-06-26T14:36:23;31.30;34.80
81337;DHT22;70799;48.000;10.584;2023-06-26T14:38:57;31.00;35.40
81337;DHT22;70799;48.000;10.584;2023-06-26T14:41:32;30.70;36.50
81337;DHT22;70799;48.000;10.584;2023-06-26T14:44:05;30.00;37.50
81337;DHT22;70799;48.000;10.584;2023-06-26T14:46:42;29.70;39.90
81337;DHT22;70799;48.000;10.584;2023-06-26T14:49:17;29.30;42.70
81337;DHT22;70799;48.000;10.584;2023-06-26T14:51:51;28.90;46.00
81337;DHT22;70799;48.000;10.584;2023-06-26T14:54:25;28.50;46.60
81337;DHT22;70799;48.000;10.584;2023-06-26T14:56:59;28.40;47.60
81337;DHT22;70799;48.000;10.584;2023-06-26T14:59:35;28.40;46.20
81337;DHT22;70799;48.000;10.584;2023-06-26T15:02:10;28.40;47.30
81337;DHT22;70799;48.000;10.584;2023-06-26T15:04:46;28.50;47.10
81337;DHT22;70799;48.000;10.584;2023-06-26T15:07:19;28.60;47.00
81337;DHT22;70799;48.000;10.584;2023-06-26T15:09:53;28.80;46.50
81337;DHT22;70799;48.000;10.584;2023-06-26T15:12:27;29.00;45.30
81337;DHT22;70799;48.000;10.584;2023-06-26T15:15:04;29.10;43.70
81337;DHT22;70799;48.000;10.584;2023-06-26T15:17:41;29.30;43.70
81337;DHT22;70799;48.000;10.584;2023-06-26T15:20:15;29.40;43.50
81337;DHT22;70799;48.000;10.584;2023-06-26T15:22:48;29.40;43.20
81337;DHT22;70799;48.000;10.584;2023-06-26T15:25:21;29.60;42.20
81337;DHT22;70799;48.000;10.584;2023-06-26T15:27:54;29.50;40.30
81337;DHT22;70799;48.000;10.584;2023-06-26T15:30:28;29.60;40.30
81337;DHT22;70799;48.000;10.584;2023-06-26T15:33:02;29.50;40.40
81337;DHT22;70799;48.000;10.584;2023-06-26T15:35:39;29.60;39.70
81337;DHT22;70799;48.000;10.584;2023-06-26T15:38:12;29.70;39.90
81337;DHT22;70799;48.000;10.584;2023-06-26T15:40:45;29.80;40.00
81337;DHT22;70799;48.000;10.584;2023-06-26T15:43:20;29.90;40.30
81337;DHT22;70799;48.000;10.584;2023-06-26T15:45:53;29.90;40.30
81337;DHT22;70799;48.000;10.584;2023-06-26T15:48:26;29.90;40.20
81337;DHT22;70799;48.000;10.584;2023-06-26T15:51:02;30.00;40.40
81337;DHT22;70799;48.000;10.584;2023-06-26T15:53:37;29.90;40.10
81337;DHT22;70799;48.000;10.584;2023-06-26T15:56:13;29.90;40.30
81337;DHT22;70799;48.000;10.584;2023-06-26T15:58:49;29.80;40.60
81337;DHT22;70799;48.000;10.584;2023-06-26T16:01:23;29.80;40.80
81337;DHT22;70799;48.000;10.584;2023-06-26T16:03:58;30.00;40.80
81337;DHT22;70799;48.000;10.584;2023-06-26T16:06:32;30.20;40.80
81337;DHT22;70799;48.000;10.584;2023-06-26T16:09:07;30.40;41.10
81337;DHT22;70799;48.000;10.584;2023-06-26T16:11:42;30.60;40.70
81337;DHT22;70799;48.000;10.584;2023-06-26T16:14:16;30.70;39.80
81337;DHT22;70799;48.000;10.584;2023-06-26T16:16:49;30.70;39.90